General Aviation Weather

Text Reports

Enter one or more of the following location identifiers separated by a space:

Zip Code, Four-Character ICAO or Three-Character IATA airport codes.

METAR - Aviation Routine Weather Report
OOSA - Salalah,
Updated at 6:50 AM GMT on December 18, 2014 (10:50 AM GST):
METAR OOSA 180650Z AUTO 01018G30KT 6000 27/06 Q1019
TAF - Terminal Area Forecast
OOSA - Salalah,
Updated at 6:50 AM GMT on December 18, 2014 (10:50 AM GST):
TAF OOSA 180511Z 1806/1912 01017KT 7000 NSC=
Decoded:
ID: OOSA   Salalah, OM
REPORT TIME: 18  5:11
VALID TIME: 18 December AT 06:00Z to 19 December AT 12:00Z.
INITIAL WX
   WINDS: 10 AT 17
   VISIBILITY: 4.3 MILES
   WEATHER: NSC
   COMMENTS: = 

CORRECTION
INITIAL WX
   WEATHER: RPLL
   COMMENTS: 180500Z 1806/1912 08007KT 9999 FEW025 SCT100 TX31/1806Z TN24/1821Z 
TEMPORARY WX FROM 06Z TO 12Z
   WINDS: 100 AT 12
   VISIBILITY: 5.6 MILES
   WEATHER: -SHRA
   CLOUDS: 23 FEW WITH CB
   CLOUDS: 25 SCT
   CLOUDS: 100 BKN
TEMPORARY WX FROM 15Z TO 21Z
   WINDS: 90 AT 5
   CLOUDS: 25 SCT
   CLOUDS: 100 BKN
TEMPORARY WX FROM 02Z TO 07Z
   WINDS: 70 AT 11
   CLOUDS: 25 FEW
   CLOUDS: 100 SCT
   CLOUDS: 300 SCT
   COMMENTS: = 

INITIAL WX
   WEATHER: TAF_AMD_EKKA
   COMMENTS: 180626Z 1806/1906 21008KT 9999 SCT005 BKN050 
TEMPORARY WX FROM 06Z TO 09Z
   VISIBILITY: 1.1 MILES
   WEATHER: BR
   CLOUDS: 3 BKN
WX BECOMING FROM 10Z TO 13Z
   WINDS: 230 AT 12
   VISIBILITY: 2.5 MILES
   WEATHER: -RADZ_BR
   CLOUDS: 8 BKN
TEMPORARY WX FROM 13Z TO 19Z
   VISIBILITY: 1.2 MILES
   WEATHER: RADZ
   CLOUDS: 3 BKN
WX BECOMING FROM 19Z TO 22Z
   WINDS: 250 AT 18 GUST 28
   VISIBILITY: 3.1 MILES
   WEATHER: BR
   CLOUDS: 12 BKN
WX BECOMING FROM 22Z TO 01Z
   WINDS: 250 AT 12
   WEATHER: NSW
   CLOUDS: 20 BKN
   COMMENTS: = 

PIREP - Pilot Weather Report
OOSA - Salalah,
Updated at 6:50 AM GMT on December 18, 2014 (10:50 AM GST):
No PIREP is currently available for this location.
AIRMET - Airmens Meteorological Information
OOSA - Salalah,
Updated at 6:50 AM GMT on December 18, 2014 (10:50 AM GST):
No AIRMET is currently available for this location.
SIGMET - Significant Meteorological Information
OOSA - Salalah,
Updated at 6:50 AM GMT on December 18, 2014 (10:50 AM GST):
No SIGMET is currently available for this location.
NOTAM - Notice to Airmen
OOSA - Salalah,
Updated at 6:50 AM GMT on December 18, 2014 (10:50 AM GST):
No NOTAM is currently available for this location.
Forecast Area
OOSA - Salalah,
Updated at 6:50 AM GMT on December 18, 2014 (10:50 AM GST):
No NOTAM is currently available for this location.
Aviation Weather Maps